Time;durP1;ratioP1;P1;durP2;ratioP2;P2;SDS_P1;SDS_P2;PMS_P1;PMS_P2;Temp;Humidity;BMP_temperature;BMP_pressure;BME280_temperature;BME280_humidity;BME280_pressure;Samples;Min_cycle;Max_cycle;Signal;HPM_P1;HPM_P2
2024/02/13 00:01:18;;;;;;;23.60;14.40;;;;;;;9.91;100.00;100342.57;105957;1253;61822;-82
2024/02/13 00:03:47;;;;;;;25.60;14.00;;;;;;;9.91;100.00;100341.70;105935;1253;60113;-80
2024/02/13 00:06:14;;;;;;;22.70;12.70;;;;;;;9.90;100.00;100340.34;105898;1257;71326;-82
2024/02/13 00:08:42;;;;;;;22.80;13.30;;;;;;;9.90;100.00;100341.74;105961;1253;64180;-81
2024/02/13 00:11:13;;;;;;;24.00;13.50;;;;;;;9.91;100.00;100341.34;106053;1254;72747;-82
2024/02/13 00:13:45;;;;;;;25.80;14.10;;;;;;;9.91;100.00;100343.60;106137;1252;60763;-81
2024/02/13 00:16:17;;;;;;;19.00;13.40;;;;;;;9.91;100.00;100337.50;106140;1256;59632;-80
2024/02/13 00:18:52;;;;;;;21.20;13.30;;;;;;;9.91;100.00;100340.81;106191;1251;71482;-81
2024/02/13 00:21:19;;;;;;;21.30;13.90;;;;;;;9.91;100.00;100345.48;106274;1251;61783;-81
2024/02/13 00:23:47;;;;;;;21.30;12.00;;;;;;;9.92;100.00;100344.61;106269;1253;71379;-82
2024/02/13 00:26:15;;;;;;;19.30;12.60;;;;;;;9.91;100.00;100339.03;105849;1253;61738;-84
2024/02/13 00:28:44;;;;;;;21.80;12.80;;;;;;;9.91;100.00;100340.95;105900;1251;60127;-82
2024/02/13 00:31:12;;;;;;;22.20;13.00;;;;;;;9.91;100.00;100336.93;106144;1256;71784;-81
2024/02/13 00:33:40;;;;;;;23.10;12.80;;;;;;;9.92;100.00;100337.11;105982;1252;62414;-84
2024/02/13 00:36:08;;;;;;;22.50;13.40;;;;;;;9.92;100.00;100337.77;106074;1253;72765;-82
2024/02/13 00:38:35;;;;;;;20.10;13.30;;;;;;;9.92;100.00;100337.23;105939;1253;60455;-82
2024/02/13 00:41:06;;;;;;;24.30;14.30;;;;;;;9.93;100.00;100337.40;106466;1252;59658;-82
2024/02/13 00:43:35;;;;;;;24.80;15.30;;;;;;;9.92;100.00;100338.83;106159;1256;73005;-83
2024/02/13 00:46:03;;;;;;;26.50;16.30;;;;;;;9.92;100.00;100333.75;106045;1251;63739;-83
2024/02/13 00:48:31;;;;;;;23.20;14.80;;;;;;;9.91;100.00;100330.49;105981;1253;71473;-82
2024/02/13 00:50:59;;;;;;;28.70;15.70;;;;;;;9.90;100.00;100331.07;105918;1254;61698;-82
2024/02/13 00:53:27;;;;;;;26.00;15.00;;;;;;;9.89;100.00;100332.18;105961;1251;60058;-82
2024/02/13 00:55:54;;;;;;;23.10;15.20;;;;;;;9.88;100.00;100328.77;106122;1251;72968;-81
2024/02/13 00:58:22;;;;;;;28.00;14.50;;;;;;;9.89;100.00;100329.58;105935;1257;62713;-82
2024/02/13 01:00:50;;;;;;;21.70;14.20;;;;;;;9.88;100.00;100328.60;106144;1253;71948;-81
2024/02/13 01:03:17;;;;;;;22.60;12.90;;;;;;;9.88;100.00;100324.41;106171;1253;60889;-83
2024/02/13 01:05:46;;;;;;;21.20;12.60;;;;;;;9.87;100.00;100317.85;106185;1250;59558;-81
2024/02/13 01:08:16;;;;;;;23.70;14.60;;;;;;;9.86;100.00;100315.98;106144;1253;71357;-83
2024/02/13 01:10:43;;;;;;;27.80;15.50;;;;;;;9.85;100.00;100309.43;106102;1256;62907;-83
2024/02/13 01:13:12;;;;;;;23.60;14.40;;;;;;;9.83;100.00;100308.46;106046;1253;71787;-82
2024/02/13 01:15:39;;;;;;;20.40;14.20;;;;;;;9.82;100.00;100308.19;106004;1254;60355;-82
2024/02/13 01:18:08;;;;;;;16.70;12.00;;;;;;;9.81;100.00;100306.86;105986;1255;59612;-82
2024/02/13 01:20:36;;;;;;;15.30;10.40;;;;;;;9.80;100.00;100301.84;106121;1250;72848;-85
2024/02/13 01:23:03;;;;;;;18.50;10.20;;;;;;;9.80;100.00;100304.13;106255;1256;63627;-81
2024/02/13 01:25:31;;;;;;;18.70;10.10;;;;;;;9.79;100.00;100302.10;106344;1250;71462;-83
2024/02/13 01:27:59;;;;;;;17.60;11.50;;;;;;;9.78;100.00;100300.75;106028;1250;61702;-82
2024/02/13 01:30:27;;;;;;;15.80;10.90;;;;;;;9.77;100.00;100303.42;106010;1256;60017;-83
2024/02/13 01:32:55;;;;;;;10.90;8.50;;;;;;;9.76;100.00;100306.12;106056;1250;73047;-80
2024/02/13 01:35:23;;;;;;;16.20;9.20;;;;;;;9.74;100.00;100298.92;106030;1250;62595;-81
2024/02/13 01:37:50;;;;;;;14.60;9.50;;;;;;;9.72;100.00;100301.11;106005;1250;72668;-82
2024/02/13 01:40:18;;;;;;;12.30;9.30;;;;;;;9.70;100.00;100302.09;105965;1255;61980;-83
2024/02/13 01:42:48;;;;;;;11.90;9.60;;;;;;;9.68;100.00;100298.23;106102;1256;59767;-82
2024/02/13 01:45:16;;;;;;;12.30;9.80;;;;;;;9.66;100.00;100296.95;106123;1252;71193;-82
2024/02/13 01:47:44;;;;;;;12.60;9.70;;;;;;;9.65;100.00;100297.35;106162;1250;62187;-82
2024/02/13 01:50:14;;;;;;;12.70;9.30;;;;;;;9.65;100.00;100290.38;106075;1251;71174;-82
2024/02/13 01:52:42;;;;;;;14.30;9.30;;;;;;;9.64;100.00;100292.55;106079;1255;60432;-82
2024/02/13 01:55:12;;;;;;;13.70;9.10;;;;;;;9.62;100.00;100295.10;105837;1251;60046;-83
2024/02/13 01:57:40;;;;;;;12.00;10.10;;;;;;;9.60;100.00;100296.95;105952;1256;71777;-81
2024/02/13 02:00:15;;;;;;;15.40;10.00;;;;;;;9.58;100.00;100306.51;105892;1251;62639;-84
2024/02/13 02:02:42;;;;;;;16.50;9.90;;;;;;;9.56;100.00;100304.55;105811;1259;71451;-82
2024/02/13 02:05:13;;;;;;;13.50;9.90;;;;;;;9.53;100.00;100298.96;106151;1251;60346;-80
2024/02/13 02:07:42;;;;;;;15.90;10.40;;;;;;;9.50;100.00;100296.52;106161;1253;59643;-84
2024/02/13 02:10:09;;;;;;;15.60;10.40;;;;;;;9.49;100.00;100295.05;106000;1250;73113;-81
2024/02/13 02:12:41;;;;;;;14.40;10.60;;;;;;;9.48;100.00;100292.49;106117;1250;62422;-81
2024/02/13 02:15:10;;;;;;;14.30;10.70;;;;;;;9.47;100.00;100292.86;106007;1250;72816;-80
2024/02/13 02:17:38;;;;;;;16.30;11.00;;;;;;;9.46;100.00;100289.77;106045;1255;61833;-80
2024/02/13 02:20:07;;;;;;;14.90;10.60;;;;;;;9.46;100.00;100291.88;106065;1250;60527;-81
2024/02/13 02:22:34;;;;;;;15.40;11.40;;;;;;;9.47;100.00;100291.11;105975;1256;73858;-82
2024/02/13 02:25:06;;;;;;;15.80;11.40;;;;;;;9.48;100.00;100291.79;106149;1251;62480;-82
2024/02/13 02:27:35;;;;;;;14.30;10.70;;;;;;;9.48;100.00;100295.23;105996;1256;72690;-82
2024/02/13 02:30:03;;;;;;;13.70;11.20;;;;;;;9.49;100.00;100294.86;105941;1256;60586;-83
2024/02/13 02:32:31;;;;;;;18.70;11.60;;;;;;;9.48;100.00;100297.15;106013;1256;60365;-83
2024/02/13 02:34:59;;;;;;;14.90;12.20;;;;;;;9.49;100.00;100299.41;105901;1250;72525;-82
2024/02/13 02:37:27;;;;;;;20.70;11.30;;;;;;;9.49;100.00;100297.48;106104;1251;62784;-83
2024/02/13 02:39:54;;;;;;;17.70;11.00;;;;;;;9.48;100.00;100299.41;105982;1253;71754;-82
2024/02/13 02:42:22;;;;;;;17.40;12.70;;;;;;;9.48;100.00;100296.64;106038;1252;63722;-82
2024/02/13 02:44:50;;;;;;;26.40;15.00;;;;;;;9.47;100.00;100299.48;105934;1255;60451;-82
2024/02/13 02:47:19;;;;;;;22.50;13.50;;;;;;;9.46;100.00;100302.70;105971;1250;71901;-81
2024/02/13 02:49:46;;;;;;;17.60;13.10;;;;;;;9.45;100.00;100304.67;106302;1252;63709;-81
2024/02/13 02:52:14;;;;;;;17.30;13.90;;;;;;;9.44;100.00;100306.14;106066;1250;72696;-82
2024/02/13 02:54:43;;;;;;;17.50;12.10;;;;;;;9.43;100.00;100302.92;105957;1250;61591;-83
2024/02/13 02:57:11;;;;;;;16.70;12.70;;;;;;;9.43;100.00;100302.75;106234;1251;60545;-82
2024/02/13 02:59:40;;;;;;;26.30;17.40;;;;;;;9.42;100.00;100301.19;106280;1251;72794;-83
2024/02/13 03:02:08;;;;;;;21.70;15.10;;;;;;;9.43;100.00;100305.35;106344;1256;62793;-82
2024/02/13 03:04:36;;;;;;;17.10;14.50;;;;;;;9.42;100.00;100303.64;106331;1250;72986;-82
2024/02/13 03:07:05;;;;;;;23.50;16.70;;;;;;;9.43;100.00;100303.92;106337;1255;60572;-84
2024/02/13 03:09:32;;;;;;;20.30;15.10;;;;;;;9.43;100.00;100310.90;106338;1256;60479;-84
2024/02/13 03:12:00;;;;;;;16.20;11.10;;;;;;;9.43;100.00;100309.02;106154;1251;72583;-82
2024/02/13 03:14:28;;;;;;;21.00;12.50;;;;;;;9.43;100.00;100312.33;105911;1251;63672;-83
2024/02/13 03:16:56;;;;;;;18.80;11.70;;;;;;;9.43;100.00;100313.40;106064;1256;72679;-82
2024/02/13 03:19:24;;;;;;;15.70;11.70;;;;;;;9.42;100.00;100318.14;106111;1251;61190;-81
2024/02/13 03:21:52;;;;;;;16.50;11.30;;;;;;;9.41;100.00;100320.50;106111;1251;60490;-81
2024/02/13 03:24:19;;;;;;;17.30;12.80;;;;;;;9.39;100.00;100317.27;106630;1251;73838;-80
2024/02/13 03:26:47;;;;;;;15.30;11.10;;;;;;;9.37;100.00;100311.80;106694;1250;63611;-84
2024/02/13 03:29:15;;;;;;;15.20;11.90;;;;;;;9.37;100.00;100311.33;106235;1250;73147;-85
2024/02/13 03:31:44;;;;;;;16.50;12.20;;;;;;;9.35;100.00;100304.60;106056;1256;60515;-82
2024/02/13 03:34:11;;;;;;;16.90;12.00;;;;;;;9.35;100.00;100300.21;105989;1250;60703;-83
2024/02/13 03:36:39;;;;;;;16.60;11.90;;;;;;;9.34;100.00;100303.08;106047;1250;72621;-84
2024/02/13 03:39:06;;;;;;;18.00;12.30;;;;;;;9.34;100.00;100301.33;106016;1250;62389;-84
2024/02/13 03:41:42;;;;;;;15.70;11.00;;;;;;;9.33;100.00;100302.95;105945;1251;72789;-82
2024/02/13 03:44:11;;;;;;;16.90;12.20;;;;;;;9.32;100.00;100298.45;105924;1256;61678;-82
2024/02/13 03:46:39;;;;;;;14.50;11.10;;;;;;;9.33;100.00;100296.14;106017;1251;60428;-82
2024/02/13 03:49:10;;;;;;;14.10;11.80;;;;;;;9.34;100.00;100293.13;106040;1250;73919;-82
2024/02/13 03:51:38;;;;;;;17.90;12.60;;;;;;;9.35;100.00;100287.13;105940;1250;62878;-82
2024/02/13 03:54:08;;;;;;;14.30;11.80;;;;;;;9.37;100.00;100285.42;106265;1253;72691;-83
2024/02/13 03:56:37;;;;;;;16.30;13.10;;;;;;;9.39;100.00;100285.16;105994;1250;60870;-84
2024/02/13 03:59:05;;;;;;;17.40;11.80;;;;;;;9.41;100.00;100284.53;105848;1251;60365;-82
2024/02/13 04:01:33;;;;;;;13.10;10.90;;;;;;;9.43;100.00;100286.50;105907;1255;72949;-82
2024/02/13 04:04:01;;;;;;;16.40;11.70;;;;;;;9.45;100.00;100285.84;105865;1250;62479;-83
2024/02/13 04:06:28;;;;;;;14.00;11.40;;;;;;;9.47;100.00;100285.39;105948;1251;71113;-83
2024/02/13 04:08:56;;;;;;;12.90;10.00;;;;;;;9.49;100.00;100293.64;105952;1251;61161;-82
2024/02/13 04:11:24;;;;;;;18.20;11.30;;;;;;;9.50;100.00;100294.76;105926;1250;60458;-84
2024/02/13 04:13:51;;;;;;;15.40;12.00;;;;;;;9.52;100.00;100290.25;105866;1255;73100;-83
2024/02/13 04:16:19;;;;;;;16.40;11.70;;;;;;;9.54;100.00;100293.46;105884;1256;63699;-82
2024/02/13 04:18:46;;;;;;;17.60;12.20;;;;;;;9.56;100.00;100300.38;105933;1250;72683;-81
2024/02/13 04:21:17;;;;;;;16.10;11.80;;;;;;;9.58;100.00;100305.67;105879;1251;60940;-81
2024/02/13 04:23:46;;;;;;;17.10;12.70;;;;;;;9.59;100.00;100309.61;105845;1255;60391;-83
2024/02/13 04:26:14;;;;;;;17.90;11.30;;;;;;;9.61;100.00;100319.95;105846;1250;72673;-85
2024/02/13 04:29:01;;;;;;;15.10;10.60;;;;;;;9.62;100.00;100324.06;105985;1256;63684;-83
2024/02/13 04:31:29;;;;;;;18.10;12.40;;;;;;;9.62;100.00;100325.87;106008;1251;71435;-81
2024/02/13 04:33:56;;;;;;;21.00;13.00;;;;;;;9.59;100.00;100327.27;106601;1251;60959;-80
2024/02/13 04:36:25;;;;;;;18.30;13.00;;;;;;;9.58;100.00;100333.39;107050;1250;60516;-80
2024/02/13 04:38:53;;;;;;;16.00;12.10;;;;;;;9.59;100.00;100329.15;106632;1256;71555;-81
2024/02/13 04:41:20;;;;;;;18.20;13.10;;;;;;;9.57;100.00;100328.23;106093;1256;64299;-84
2024/02/13 04:43:49;;;;;;;16.50;12.50;;;;;;;9.57;100.00;100346.39;105956;1256;72664;-82
2024/02/13 04:46:17;;;;;;;16.30;11.90;;;;;;;9.57;100.00;100344.66;105948;1255;61703;-82
2024/02/13 04:48:45;;;;;;;14.70;13.00;;;;;;;9.56;100.00;100344.16;106064;1250;60439;-81
2024/02/13 04:51:14;;;;;;;15.60;12.00;;;;;;;9.57;100.00;100347.94;106457;1250;72316;-81
2024/02/13 04:53:42;;;;;;;16.70;13.30;;;;;;;9.58;100.00;100348.77;105990;1251;62307;-82
2024/02/13 04:56:10;;;;;;;17.90;13.10;;;;;;;9.59;100.00;100354.62;105941;1253;71478;-82
2024/02/13 04:58:40;;;;;;;19.60;13.60;;;;;;;9.61;100.00;100361.33;105948;1250;61602;-82
2024/02/13 05:01:09;;;;;;;20.40;14.80;;;;;;;9.61;100.00;100363.22;105907;1256;60346;-81
2024/02/13 05:07:19;;;;;;;23.90;14.60;;;;;;;9.63;100.00;100370.98;106022;1250;73117;-83
2024/02/13 05:09:17;;;;;;;19.00;14.70;;;;;;;9.65;100.00;100382.71;106053;1255;72725;-81
2024/02/13 05:11:45;;;;;;;20.20;13.70;;;;;;;9.65;100.00;100384.99;105905;1251;61702;-83
2024/02/13 05:14:12;;;;;;;26.70;16.00;;;;;;;9.64;100.00;100383.52;105941;1255;60528;-83
2024/02/13 05:16:41;;;;;;;31.20;16.80;;;;;;;9.60;100.00;100385.43;105903;1250;72537;-81
2024/02/13 05:19:09;;;;;;;21.80;16.80;;;;;;;9.59;100.00;100389.21;105907;1255;63635;-81
2024/02/13 05:21:36;;;;;;;23.60;15.30;;;;;;;9.59;100.00;100394.45;105966;1255;71443;-81
2024/02/13 05:24:06;;;;;;;22.30;15.50;;;;;;;9.60;100.00;100391.72;105880;1250;60805;-82
2024/02/13 05:26:34;;;;;;;24.50;16.30;;;;;;;9.60;100.00;100394.39;106060;1254;60527;-82
2024/02/13 05:29:03;;;;;;;25.00;17.20;;;;;;;9.60;100.00;100397.50;106007;1250;73414;-81
2024/02/13 05:31:33;;;;;;;23.60;16.10;;;;;;;9.60;100.00;100398.20;109640;1250;62710;-82
2024/02/13 05:34:03;;;;;;;23.90;16.80;;;;;;;9.61;100.00;100395.55;109661;1250;72822;-81
2024/02/13 05:36:30;;;;;;;36.60;19.00;;;;;;;9.62;100.00;100401.27;109628;1251;61724;-84
2024/02/13 05:38:58;;;;;;;30.00;19.30;;;;;;;9.64;100.00;100402.36;109667;1250;59719;-82
2024/02/13 05:41:25;;;;;;;26.00;19.50;;;;;;;9.66;100.00;100403.27;109617;1250;72540;-81
2024/02/13 05:43:54;;;;;;;31.80;20.80;;;;;;;9.68;100.00;100402.63;109636;1250;62507;-82
2024/02/13 05:46:22;;;;;;;27.60;19.00;;;;;;;9.71;100.00;100402.98;109654;1250;73133;-83
2024/02/13 05:48:54;;;;;;;30.50;21.00;;;;;;;9.74;100.00;100404.70;109635;1250;61641;-82
2024/02/13 05:51:22;;;;;;;38.80;21.70;;;;;;;9.78;100.00;100411.48;109594;1250;60186;-82
2024/02/13 05:53:49;;;;;;;34.70;21.40;;;;;;;9.77;100.00;100410.30;109602;1250;73863;-81
2024/02/13 05:56:17;;;;;;;35.40;21.90;;;;;;;9.76;100.00;100411.91;109661;1250;62270;-81
2024/02/13 05:58:57;;;;;;;36.90;22.90;;;;;;;9.78;100.00;100411.80;109686;1250;72685;-83
2024/02/13 06:01:25;;;;;;;38.30;22.70;;;;;;;9.79;100.00;100415.06;109679;1250;59682;-81
2024/02/13 06:03:56;;;;;;;40.20;26.20;;;;;;;9.80;100.00;100418.64;109588;1250;59248;-82
2024/02/13 06:06:25;;;;;;;40.20;24.80;;;;;;;9.83;100.00;100420.38;109615;1250;73943;-81
2024/02/13 06:08:54;;;;;;;38.00;22.30;;;;;;;9.87;100.00;100424.70;109731;1250;62294;-82
2024/02/13 06:11:23;;;;;;;36.90;23.00;;;;;;;9.90;100.00;100425.23;109661;1250;71451;-82
2024/02/13 06:13:52;;;;;;;32.10;22.20;;;;;;;9.90;100.00;100429.73;109628;1251;60725;-82
2024/02/13 06:16:19;;;;;;;33.80;21.20;;;;;;;9.94;100.00;100431.77;109675;1250;60258;-83
2024/02/13 06:18:48;;;;;;;34.90;20.50;;;;;;;9.99;100.00;100433.78;109656;1256;74280;-82
2024/02/13 06:21:18;;;;;;;35.30;22.10;;;;;;;10.01;100.00;100434.52;109670;1250;65135;-83
2024/02/13 06:23:50;;;;;;;38.50;23.20;;;;;;;10.03;100.00;100440.54;109644;1250;72712;-85
2024/02/13 06:26:18;;;;;;;36.80;24.00;;;;;;;10.03;100.00;100441.58;109628;1255;61708;-81
2024/02/13 06:28:46;;;;;;;38.60;22.90;;;;;;;10.04;100.00;100442.86;109674;1250;58578;-82
2024/02/13 06:31:14;;;;;;;34.60;20.60;;;;;;;10.06;100.00;100444.48;109686;1250;72980;-82
2024/02/13 06:33:42;;;;;;;31.20;21.90;;;;;;;10.08;100.00;100446.15;109643;1250;62294;-82
2024/02/13 06:36:10;;;;;;;30.80;21.50;;;;;;;10.09;100.00;100444.52;109658;1250;72466;-83
2024/02/13 06:38:38;;;;;;;36.50;20.80;;;;;;;10.11;100.00;100443.15;109599;1250;60417;-82
2024/02/13 06:41:08;;;;;;;37.60;21.30;;;;;;;10.12;100.00;100443.79;109639;1250;58721;-82
2024/02/13 06:43:36;;;;;;;30.50;21.30;;;;;;;10.13;100.00;100442.34;109661;1253;73868;-83
2024/02/13 06:46:03;;;;;;;37.80;22.20;;;;;;;10.15;100.00;100440.31;109612;1250;62652;-82
2024/02/13 06:48:31;;;;;;;30.60;21.20;;;;;;;10.18;100.00;100438.91;109610;1250;72825;-84
2024/02/13 06:50:59;;;;;;;32.40;21.30;;;;;;;10.20;100.00;100442.64;109639;1250;60587;-83
2024/02/13 06:53:28;;;;;;;35.60;21.60;;;;;;;10.20;100.00;100445.05;109671;1250;58723;-80
2024/02/13 06:55:56;;;;;;;32.90;22.40;;;;;;;10.24;100.00;100443.78;109658;1250;72540;-81
2024/02/13 06:58:23;;;;;;;33.80;22.40;;;;;;;10.24;100.00;100447.77;109793;1250;62499;-82
2024/02/13 07:00:51;;;;;;;30.90;21.80;;;;;;;10.25;100.00;100448.94;109613;1250;72294;-80
2024/02/13 07:03:19;;;;;;;35.20;23.10;;;;;;;10.25;100.00;100446.33;109634;1250;61701;-81
2024/02/13 07:05:47;;;;;;;35.80;22.90;;;;;;;10.24;100.00;100446.01;109689;1250;59969;-82
2024/02/13 07:08:15;;;;;;;42.50;25.10;;;;;;;10.28;100.00;100447.03;109649;1250;72846;-82
2024/02/13 07:10:44;;;;;;;38.30;24.10;;;;;;;10.32;100.00;100449.03;109653;1250;63688;-82
2024/02/13 07:13:11;;;;;;;36.90;23.20;;;;;;;10.37;100.00;100449.84;109639;1250;70825;-82
2024/02/13 07:15:39;;;;;;;41.10;27.90;;;;;;;10.39;100.00;100457.22;109566;1251;60503;-82
2024/02/13 07:18:07;;;;;;;40.00;28.80;;;;;;;10.37;100.00;100460.61;109694;1250;58825;-84
2024/02/13 07:20:36;;;;;;;44.60;28.40;;;;;;;10.34;100.00;100464.33;109761;1250;73865;-83
2024/02/13 07:23:03;;;;;;;38.90;26.10;;;;;;;10.30;100.00;100466.33;109663;1250;63959;-82
2024/02/13 07:25:31;;;;;;;37.70;25.60;;;;;;;10.27;100.00;100472.74;109607;1250;71063;-83
2024/02/13 07:27:58;;;;;;;42.90;29.20;;;;;;;10.27;100.00;100474.84;109674;1250;60145;-82
2024/02/13 07:30:26;;;;;;;40.40;29.10;;;;;;;10.30;100.00;100477.66;109665;1250;59936;-81
2024/02/13 07:32:54;;;;;;;44.80;29.00;;;;;;;10.34;100.00;100477.98;109599;1253;75474;-81
2024/02/13 07:35:22;;;;;;;45.80;28.50;;;;;;;10.36;100.00;100477.30;109661;1250;63673;-83
2024/02/13 07:37:50;;;;;;;39.10;27.20;;;;;;;10.39;100.00;100487.60;109664;1250;72418;-83
2024/02/13 07:40:19;;;;;;;44.80;28.30;;;;;;;10.44;100.00;100490.30;109628;1256;62756;-83
2024/02/13 07:42:56;;;;;;;39.90;27.30;;;;;;;10.47;100.00;100491.30;109821;1250;59083;-85
2024/02/13 07:45:42;;;;;;;38.10;26.30;;;;;;;10.47;100.00;100493.27;109676;1250;74998;-83
2024/02/13 07:48:13;;;;;;;38.60;24.40;;;;;;;10.44;100.00;100496.73;109698;1250;64008;-84
2024/02/13 07:50:47;;;;;;;36.90;25.20;;;;;;;10.41;100.00;100505.30;109697;1250;73744;-84
2024/02/13 07:53:25;;;;;;;36.60;24.90;;;;;;;10.37;100.00;100506.40;109586;1250;63817;-83
2024/02/13 07:56:10;;;;;;;30.80;22.70;;;;;;;10.36;100.00;100508.27;109341;1250;61001;-82
2024/02/13 07:59:00;;;;;;;32.20;21.10;;;;;;;10.35;100.00;100505.67;109634;1250;74246;-83
2024/02/13 08:01:49;;;;;;;35.70;21.00;;;;;;;10.36;100.00;100491.30;109585;1250;63517;-84
2024/02/13 08:04:19;;;;;;;31.50;22.00;;;;;;;10.35;100.00;100484.89;109494;1250;71198;-81
2024/02/13 08:07:14;;;;;;;32.30;21.50;;;;;;;10.36;100.00;100482.74;109669;1253;60908;-85
2024/02/13 08:09:51;;;;;;;27.10;20.70;;;;;;;10.39;100.00;100475.72;109510;1250;59384;-83
2024/02/13 08:12:19;;;;;;;33.90;22.10;;;;;;;10.43;100.00;100476.58;109673;1250;73831;-85
2024/02/13 08:17:55;;;;;;;37.10;24.70;;;;;;;10.48;100.00;100468.87;103701;1289;599448;-82
2024/02/13 08:20:45;;;;;;;33.30;24.70;;;;;;;10.46;100.00;100468.30;106096;1267;62901;-83
2024/02/13 08:23:35;;;;;;;31.50;23.00;;;;;;;10.47;100.00;100466.51;105928;1264;59377;-84
2024/02/13 08:26:10;;;;;;;33.70;23.70;;;;;;;10.50;100.00;100472.47;105738;1265;71009;-83
2024/02/13 08:29:01;;;;;;;34.20;22.70;;;;;;;10.53;100.00;100484.98;106003;1270;64325;-84
2024/02/13 08:31:37;;;;;;;30.00;20.80;;;;;;;10.55;100.00;100471.26;105098;1263;404952;-84
2024/02/13 08:34:06;;;;;;;33.40;21.80;;;;;;;10.56;100.00;100475.73;105637;1264;62133;-83
2024/02/13 08:36:38;;;;;;;30.40;22.60;;;;;;;10.56;100.00;100472.56;105911;1263;59275;-83
2024/02/13 08:39:08;;;;;;;37.40;21.10;;;;;;;10.56;100.00;100468.20;105936;1258;72512;-84
2024/02/13 08:41:37;;;;;;;37.00;24.10;;;;;;;10.56;100.00;100464.56;105959;1258;62033;-85
2024/02/13 08:44:05;;;;;;;35.60;22.10;;;;;;;10.55;100.00;100467.01;105747;1263;71640;-84
2024/02/13 08:46:32;;;;;;;30.30;22.70;;;;;;;10.56;100.00;100469.78;106088;1257;64124;-83
2024/02/13 08:49:00;;;;;;;34.10;23.80;;;;;;;10.59;100.00;100469.77;107980;1257;59650;-81
2024/02/13 08:51:30;;;;;;;38.60;23.30;;;;;;;10.62;100.00;100460.33;108858;1257;71484;-83
2024/02/13 08:54:04;;;;;;;32.30;23.60;;;;;;;10.63;100.00;100458.31;108929;1257;63986;-83
2024/02/13 08:56:33;;;;;;;36.20;24.70;;;;;;;10.68;100.00;100458.20;108975;1257;70082;-83
2024/02/13 08:59:03;;;;;;;38.00;25.00;;;;;;;10.72;100.00;100461.45;108939;1261;60480;-84
2024/02/13 09:01:30;;;;;;;34.50;25.50;;;;;;;10.71;100.00;100464.13;109218;1257;58054;-84
2024/02/13 09:03:58;;;;;;;39.10;28.20;;;;;;;10.69;100.00;100456.91;108679;1257;71775;-83
2024/02/13 09:06:26;;;;;;;40.80;28.40;;;;;;;10.67;100.00;100453.86;108683;1257;62342;-83
2024/02/13 09:08:54;;;;;;;39.00;29.60;;;;;;;10.69;100.00;100454.64;109679;1251;71250;-82
2024/02/13 09:11:39;;;;;;;45.50;32.00;;;;;;;10.74;100.00;100448.35;106334;1290;599646;-84
2024/02/13 09:14:11;;;;;;;44.90;32.40;;;;;;;10.73;100.00;100447.88;109295;1256;59818;-83
2024/02/13 09:16:40;;;;;;;45.90;32.40;;;;;;;10.76;100.00;100453.33;108073;1262;59238;-82
2024/02/13 09:19:08;;;;;;;49.90;34.60;;;;;;;10.76;100.00;100453.13;107140;1262;70104;-82
2024/02/13 09:21:36;;;;;;;45.40;32.00;;;;;;;10.79;100.00;100451.54;107212;1261;61748;-83
2024/02/13 09:24:05;;;;;;;50.50;33.70;;;;;;;10.83;100.00;100448.14;107541;1260;71096;-81
2024/02/13 09:26:33;;;;;;;49.60;33.60;;;;;;;10.88;100.00;100444.48;108271;1255;61764;-83
2024/02/13 09:29:05;;;;;;;49.00;34.20;;;;;;;10.93;100.00;100441.58;108363;1254;58661;-82
2024/02/13 09:31:33;;;;;;;54.60;36.50;;;;;;;11.00;100.00;100450.19;107961;1254;73279;-82
2024/02/13 09:34:01;;;;;;;58.70;35.70;;;;;;;11.08;100.00;100451.79;108854;1253;61700;-83
2024/02/13 09:36:31;;;;;;;58.20;38.60;;;;;;;11.13;100.00;100448.30;109009;1254;71211;-82
2024/02/13 09:38:59;;;;;;;58.10;40.80;;;;;;;11.16;100.00;100438.50;108148;1255;60295;-84
2024/02/13 09:41:27;;;;;;;66.60;41.20;;;;;;;11.25;100.00;100440.05;107935;1255;59258;-84
2024/02/13 09:43:56;;;;;;;65.70;40.40;;;;;;;11.28;100.00;100438.06;107555;1254;72941;-82
2024/02/13 09:46:25;;;;;;;65.70;40.50;;;;;;;11.30;100.00;100433.01;108094;1253;63967;-83
2024/02/13 09:48:54;;;;;;;62.00;41.60;;;;;;;11.31;100.00;100428.73;108371;1254;71167;-83
2024/02/13 09:51:22;;;;;;;60.10;39.30;;;;;;;11.31;100.00;100428.25;107101;1253;60905;-85
2024/02/13 09:53:51;;;;;;;58.40;41.90;;;;;;;11.30;100.00;100423.08;106925;1254;59704;-84
2024/02/13 09:56:22;;;;;;;62.10;39.80;;;;;;;11.31;100.00;100423.55;106138;1254;71625;-83
2024/02/13 09:58:49;;;;;;;66.80;43.80;;;;;;;11.31;100.00;100416.65;105831;1262;65864;-82
2024/02/13 10:01:18;;;;;;;65.40;42.00;;;;;;;11.36;100.00;100407.94;106109;1255;71825;-84
2024/02/13 10:03:47;;;;;;;58.50;36.10;;;;;;;11.43;100.00;100404.50;105611;1258;60044;-85
2024/02/13 10:06:14;;;;;;;57.30;38.00;;;;;;;11.52;100.00;100403.44;105641;1260;60077;-82
2024/02/13 10:08:47;;;;;;;58.90;37.60;;;;;;;11.59;100.00;100408.33;105820;1253;73637;-83
2024/02/13 10:11:16;;;;;;;57.00;36.40;;;;;;;11.65;100.00;100407.10;105932;1254;62757;-82
2024/02/13 10:13:46;;;;;;;54.50;36.70;;;;;;;11.65;100.00;100407.26;105710;1257;74283;-82
2024/02/13 10:16:19;;;;;;;46.50;33.40;;;;;;;11.65;100.00;100406.20;105714;1259;60195;-83
2024/02/13 10:18:51;;;;;;;52.40;37.70;;;;;;;11.62;100.00;100399.02;105597;1253;59969;-83
2024/02/13 10:21:25;;;;;;;61.20;40.30;;;;;;;11.61;100.00;100397.53;105898;1259;73495;-83
2024/02/13 10:24:05;;;;;;;64.00;40.90;;;;;;;11.60;100.00;100400.55;105629;1263;63609;-80
2024/02/13 10:26:34;;;;;;;75.70;47.30;;;;;;;11.61;100.00;100410.11;105943;1259;71137;-83
2024/02/13 10:29:03;;;;;;;73.10;48.20;;;;;;;11.61;100.00;100403.45;106006;1254;60795;-82
2024/02/13 10:31:34;;;;;;;77.60;49.50;;;;;;;11.57;100.00;100402.02;106012;1260;60439;-82
2024/02/13 10:34:03;;;;;;;85.70;54.70;;;;;;;11.49;100.00;100395.71;105974;1256;70840;-85
2024/02/13 10:36:32;;;;;;;82.50;52.50;;;;;;;11.45;100.00;100395.50;106023;1256;62956;-82
2024/02/13 10:39:01;;;;;;;85.10;49.30;;;;;;;11.43;100.00;100394.52;106104;1257;72485;-84
2024/02/13 10:41:29;;;;;;;77.20;47.90;;;;;;;11.40;100.00;100395.95;106240;1254;61015;-83
2024/02/13 10:43:58;;;;;;;65.70;42.80;;;;;;;11.35;100.00;100394.03;106374;1258;60734;-82
2024/02/13 10:46:25;;;;;;;59.20;36.80;;;;;;;11.27;100.00;100394.21;106362;1251;75338;-82
2024/02/13 20:34:55;;;;;;;54.80;38.50;;;;;;;10.03;100.00;100312.67;103597;1289;613115;-84
2024/02/13 20:37:22;;;;;;;55.40;36.90;;;;;;;10.03;100.00;100320.69;105372;1264;63116;-83
2024/02/13 20:39:49;;;;;;;54.80;38.80;;;;;;;10.06;100.00;100323.48;105372;1266;59274;-84
2024/02/13 20:42:17;;;;;;;52.90;38.60;;;;;;;10.07;100.00;100326.58;105436;1266;72296;-83
2024/02/13 20:44:44;;;;;;;58.20;39.40;;;;;;;10.04;100.00;100324.46;105467;1264;64858;-83
2024/02/13 20:47:11;;;;;;;61.50;41.00;;;;;;;10.03;100.00;100331.17;105242;1260;261279;-83
2024/02/13 20:49:42;;;;;;;55.30;38.90;;;;;;;10.03;100.00;100332.77;105370;1263;62312;-85
2024/02/13 20:52:13;;;;;;;53.80;37.60;;;;;;;10.02;100.00;100331.80;105988;1257;59224;-83
2024/02/13 20:54:40;;;;;;;58.20;38.10;;;;;;;10.01;100.00;100328.35;106489;1254;72278;-82
2024/02/13 20:57:08;;;;;;;56.00;38.40;;;;;;;10.00;100.00;100325.92;106289;1248;63900;-84
2024/02/13 20:59:35;;;;;;;54.60;35.60;;;;;;;10.01;100.00;100325.04;106404;1248;71349;-84
2024/02/13 21:02:02;;;;;;;60.50;38.80;;;;;;;10.01;100.00;100325.20;106310;1253;62816;-83